Time;durP1;ratioP1;P1;durP2;ratioP2;P2;SDS_P1;SDS_P2;PMS_P1;PMS_P2;Temp;Humidity;BMP_temperature;BMP_pressure;BME280_temperature;BME280_humidity;BME280_pressure;Samples;Min_cycle;Max_cycle;Signal;HPM_P1;HPM_P2
2024/03/05 00:01:24;;;;;;;47.60;24.60;;;;;;;;;;5056657;28;20573;-86
2024/03/05 00:04:28;;;;;;;45.30;22.40;;;;;;;;;;5057350;28;20653;-85
2024/03/05 00:07:36;;;;;;;40.00;21.93;;;;;;;;;;5045505;28;20176;-86
2024/03/05 00:10:40;;;;;;;43.10;22.33;;;;;;;;;;5045779;28;20223;-86
2024/03/05 00:13:45;;;;;;;45.83;24.00;;;;;;;;;;5057211;28;20176;-86
2024/03/05 00:16:49;;;;;;;45.57;22.43;;;;;;;;;;5057255;28;20172;-86
2024/03/05 00:19:53;;;;;;;42.33;23.13;;;;;;;;;;5056372;28;20219;-86
2024/03/05 00:22:58;;;;;;;42.90;21.27;;;;;;;;;;5045699;28;20180;-86
2024/03/05 00:26:04;;;;;;;44.80;22.43;;;;;;;;;;5056412;28;20212;-86
2024/03/05 00:29:08;;;;;;;46.83;22.57;;;;;;;;;;5034432;28;20184;-86
2024/03/05 00:32:12;;;;;;;44.80;23.07;;;;;;;;;;5046274;28;20184;-85
2024/03/05 00:35:16;;;;;;;44.23;23.33;;;;;;;;;;5059163;28;20180;-86
2024/03/05 00:38:20;;;;;;;42.63;21.13;;;;;;;;;;5045864;28;20180;-86
2024/03/05 00:41:25;;;;;;;43.40;22.77;;;;;;;;;;5056942;28;20566;-85
2024/03/05 00:44:30;;;;;;;43.30;22.37;;;;;;;;;;5044394;28;20184;-86
2024/03/05 00:47:35;;;;;;;46.17;22.67;;;;;;;;;;5055285;28;20177;-85
2024/03/05 00:50:39;;;;;;;46.60;23.20;;;;;;;;;;5044321;28;20215;-85
2024/03/05 00:53:49;;;;;;;41.97;21.77;;;;;;;;;;5056429;28;20180;-85
2024/03/05 00:56:53;;;;;;;44.30;21.23;;;;;;;;;;5055550;28;20180;-85
2024/03/05 00:59:57;;;;;;;40.17;20.93;;;;;;;;;;5055014;28;20223;-85
2024/03/05 01:03:02;;;;;;;39.33;20.70;;;;;;;;;;5032613;28;20185;-86
2024/03/05 01:06:07;;;;;;;45.87;22.03;;;;;;;;;;5057850;28;20212;-85
2024/03/05 01:09:18;;;;;;;42.47;20.17;;;;;;;;;;5039513;28;20185;-86
2024/03/05 01:12:23;;;;;;;39.50;19.97;;;;;;;;;;5051267;28;20172;-86
2024/03/05 01:15:27;;;;;;;41.37;21.47;;;;;;;;;;5039112;28;20172;-85
2024/03/05 01:18:31;;;;;;;40.93;22.00;;;;;;;;;;5062776;28;20184;-85
2024/03/05 01:21:35;;;;;;;45.40;22.37;;;;;;;;;;5062986;28;20216;-86
2024/03/05 01:24:40;;;;;;;41.30;20.97;;;;;;;;;;5051457;28;20184;-86
2024/03/05 01:27:45;;;;;;;40.93;21.13;;;;;;;;;;5050839;28;20203;-86
2024/03/05 01:30:49;;;;;;;44.67;21.70;;;;;;;;;;5050783;28;20215;-86
2024/03/05 01:33:53;;;;;;;42.97;22.07;;;;;;;;;;5063066;28;20180;-86
2024/03/05 01:36:58;;;;;;;44.43;22.10;;;;;;;;;;5039132;28;20176;-85
2024/03/05 01:40:06;;;;;;;44.33;23.43;;;;;;;;;;5062519;28;20223;-85
2024/03/05 01:43:11;;;;;;;46.30;23.20;;;;;;;;;;5060849;28;20180;-85
2024/03/05 01:46:17;;;;;;;41.00;21.83;;;;;;;;;;5027189;28;20212;-86
2024/03/05 01:49:23;;;;;;;46.13;24.03;;;;;;;;;;5049604;28;20180;-85
2024/03/05 01:52:28;;;;;;;40.87;20.70;;;;;;;;;;5060991;28;20180;-86
2024/03/05 01:55:32;;;;;;;44.43;22.87;;;;;;;;;;5037709;28;20180;-86
2024/03/05 01:58:42;;;;;;;43.90;22.13;;;;;;;;;;5037458;28;20180;-86
2024/03/05 02:01:48;;;;;;;42.23;21.90;;;;;;;;;;5060521;28;20549;-87
2024/03/05 02:04:53;;;;;;;47.63;23.10;;;;;;;;;;5060788;28;20184;-86
2024/03/05 02:07:58;;;;;;;44.70;23.37;;;;;;;;;;5036886;28;20208;-86
2024/03/05 02:11:02;;;;;;;46.07;23.17;;;;;;;;;;5059307;28;20219;-86
2024/03/05 02:14:08;;;;;;;41.07;21.57;;;;;;;;;;5047432;28;20184;-85
2024/03/05 02:17:12;;;;;;;43.57;22.20;;;;;;;;;;5071614;28;20176;-86
2024/03/05 02:20:17;;;;;;;44.47;23.07;;;;;;;;;;5063434;28;20215;-86
2024/03/05 02:23:21;;;;;;;47.40;22.73;;;;;;;;;;5051026;28;20184;-87
2024/03/05 02:26:28;;;;;;;42.33;21.57;;;;;;;;;;5062127;28;20212;-86
2024/03/05 02:29:38;;;;;;;43.40;21.83;;;;;;;;;;5050475;28;20184;-86
2024/03/05 02:32:42;;;;;;;42.30;21.23;;;;;;;;;;5062114;28;20518;-86
2024/03/05 02:35:48;;;;;;;46.87;22.83;;;;;;;;;;5062495;28;20184;-85
2024/03/05 02:38:53;;;;;;;46.03;22.23;;;;;;;;;;5050270;28;20538;-86
2024/03/05 02:41:58;;;;;;;44.40;23.43;;;;;;;;;;5049705;28;20179;-86
2024/03/05 02:45:06;;;;;;;46.07;22.87;;;;;;;;;;5061217;28;20184;-85
2024/03/05 02:48:10;;;;;;;41.07;21.43;;;;;;;;;;5049240;28;20208;-85
2024/03/05 02:51:14;;;;;;;41.23;21.73;;;;;;;;;;5037326;28;20211;-86
2024/03/05 02:54:18;;;;;;;39.80;21.33;;;;;;;;;;5060047;28;20531;-86
2024/03/05 02:57:24;;;;;;;38.40;19.47;;;;;;;;;;5048418;28;20177;-87
2024/03/05 03:00:28;;;;;;;40.93;21.37;;;;;;;;;;5048826;28;20573;-86
2024/03/05 03:03:36;;;;;;;39.77;21.63;;;;;;;;;;5060601;28;20176;-86
2024/03/05 03:06:41;;;;;;;42.30;21.07;;;;;;;;;;5060019;28;20204;-86
2024/03/05 03:09:46;;;;;;;36.70;20.20;;;;;;;;;;5047983;28;20215;-86
2024/03/05 03:12:50;;;;;;;41.27;21.17;;;;;;;;;;5036513;28;20176;-85
2024/03/05 03:15:54;;;;;;;42.43;20.03;;;;;;;;;;5048073;28;20180;-86
2024/03/05 03:18:59;;;;;;;42.00;22.50;;;;;;;;;;5059436;28;20180;-86
2024/03/05 03:22:03;;;;;;;40.23;21.67;;;;;;;;;;5048052;28;20518;-87
2024/03/05 03:25:09;;;;;;;43.43;20.97;;;;;;;;;;5048245;28;20184;-86
2024/03/05 03:28:13;;;;;;;44.90;22.67;;;;;;;;;;5058180;28;20550;-85
2024/03/05 03:31:17;;;;;;;44.37;22.20;;;;;;;;;;5047623;28;20223;-85
2024/03/05 03:34:22;;;;;;;47.07;23.27;;;;;;;;;;5047778;28;20184;-85
2024/03/05 03:37:28;;;;;;;38.80;21.30;;;;;;;;;;5070237;28;20176;-86
2024/03/05 03:40:33;;;;;;;41.53;21.73;;;;;;;;;;5058030;28;20220;-86
2024/03/05 03:43:37;;;;;;;39.90;21.20;;;;;;;;;;5035583;28;20184;-86
2024/03/05 03:46:41;;;;;;;42.20;21.97;;;;;;;;;;5035555;28;20564;-86
2024/03/05 03:49:48;;;;;;;41.40;21.23;;;;;;;;;;5058925;28;20216;-90
2024/03/05 03:52:52;;;;;;;40.17;21.63;;;;;;;;;;5047487;28;20176;-89
2024/03/05 03:55:57;;;;;;;41.30;22.33;;;;;;;;;;5058494;28;20184;-90
2024/03/05 03:59:01;;;;;;;40.30;21.50;;;;;;;;;;5058048;28;20181;-90
2024/03/05 04:02:05;;;;;;;42.90;22.17;;;;;;;;;;5057623;28;20184;-90
2024/03/05 04:05:11;;;;;;;48.37;23.00;;;;;;;;;;5046034;28;20176;-90
2024/03/05 04:08:15;;;;;;;43.37;21.40;;;;;;;;;;5057257;28;20208;-90
2024/03/05 04:11:21;;;;;;;43.13;22.73;;;;;;;;;;5057085;28;20212;-90
2024/03/05 04:14:26;;;;;;;46.77;22.23;;;;;;;;;;5056863;28;20180;-89
2024/03/05 04:17:31;;;;;;;45.77;21.77;;;;;;;;;;5045255;28;20180;-90
2024/03/05 04:20:35;;;;;;;45.57;22.27;;;;;;;;;;5056616;28;20215;-90
2024/03/05 04:23:39;;;;;;;42.33;22.37;;;;;;;;;;5056644;28;20176;-90
2024/03/05 04:26:48;;;;;;;40.93;21.73;;;;;;;;;;5056538;28;20212;-90
2024/03/05 04:29:56;;;;;;;40.17;21.33;;;;;;;;;;5044871;28;20216;-90
2024/03/05 04:33:03;;;;;;;41.10;21.97;;;;;;;;;;5056972;28;20184;-90
2024/03/05 04:36:09;;;;;;;42.17;21.63;;;;;;;;;;5044988;28;20184;-90
2024/03/05 04:39:16;;;;;;;41.10;21.03;;;;;;;;;;5056267;28;20172;-90
2024/03/05 04:42:22;;;;;;;39.43;20.57;;;;;;;;;;5032515;28;20661;-90
2024/03/05 04:45:27;;;;;;;40.57;21.77;;;;;;;;;;5044723;28;20188;-90
2024/03/05 04:48:31;;;;;;;41.50;21.27;;;;;;;;;;5033254;28;20212;-90
2024/03/05 04:51:37;;;;;;;43.03;20.43;;;;;;;;;;5055693;28;20220;-90
2024/03/05 04:54:41;;;;;;;37.80;20.50;;;;;;;;;;5044479;28;20180;-89
2024/03/05 04:57:45;;;;;;;38.70;19.60;;;;;;;;;;5055728;28;20534;-90
2024/03/05 05:00:49;;;;;;;42.07;21.17;;;;;;;;;;5044154;28;20565;-90
2024/03/05 05:03:53;;;;;;;43.73;21.70;;;;;;;;;;5055751;28;20629;-90
2024/03/05 05:06:57;;;;;;;45.53;22.47;;;;;;;;;;5044857;28;20208;-90
2024/03/05 05:10:01;;;;;;;45.73;22.10;;;;;;;;;;5044162;28;20219;-90
2024/03/05 05:13:05;;;;;;;43.00;21.20;;;;;;;;;;5055455;28;20180;-90
2024/03/05 05:16:11;;;;;;;43.07;22.20;;;;;;;;;;5055449;28;20179;-90
2024/03/05 05:19:16;;;;;;;47.90;22.30;;;;;;;;;;5054982;28;20172;-89
2024/03/05 05:22:20;;;;;;;42.17;22.07;;;;;;;;;;5055085;28;20181;-90
2024/03/05 05:25:24;;;;;;;44.53;22.00;;;;;;;;;;5055403;28;20530;-90
2024/03/05 05:28:29;;;;;;;45.07;22.77;;;;;;;;;;5043891;28;20208;-89
2024/03/05 05:31:33;;;;;;;44.97;23.13;;;;;;;;;;5043744;28;20219;-90
2024/03/05 05:34:37;;;;;;;45.87;23.47;;;;;;;;;;5055413;28;20180;-89
2024/03/05 05:37:42;;;;;;;47.30;22.47;;;;;;;;;;5043895;28;20188;-89
2024/03/05 05:40:46;;;;;;;46.73;22.80;;;;;;;;;;5055348;28;20220;-90
2024/03/05 05:43:50;;;;;;;41.13;21.13;;;;;;;;;;5055052;28;20546;-90
2024/03/05 05:46:56;;;;;;;45.60;22.07;;;;;;;;;;5043590;28;20180;-89
2024/03/05 05:50:00;;;;;;;42.87;21.77;;;;;;;;;;5054760;28;20219;-89
2024/03/05 05:53:06;;;;;;;42.07;22.00;;;;;;;;;;5042953;28;20179;-90
2024/03/05 05:56:10;;;;;;;45.37;22.70;;;;;;;;;;5054704;28;20184;-90
2024/03/05 05:59:15;;;;;;;47.23;23.83;;;;;;;;;;5043587;28;20176;-88
2024/03/05 06:02:19;;;;;;;49.07;23.30;;;;;;;;;;5055343;28;20518;-90
2024/03/05 06:05:31;;;;;;;46.67;24.07;;;;;;;;;;5044179;28;20235;-90
2024/03/05 06:08:35;;;;;;;50.33;24.13;;;;;;;;;;5054912;28;20199;-89
2024/03/05 06:11:39;;;;;;;43.67;22.63;;;;;;;;;;5054790;28;20175;-89
2024/03/05 06:14:44;;;;;;;48.17;22.83;;;;;;;;;;5054282;28;20176;-90
2024/03/05 06:17:49;;;;;;;50.47;23.87;;;;;;;;;;5065421;28;20180;-90
2024/03/05 06:20:53;;;;;;;48.43;23.67;;;;;;;;;;5042931;28;20569;-89
2024/03/05 06:23:57;;;;;;;55.37;25.87;;;;;;;;;;5031512;28;20176;-90
2024/03/05 06:27:03;;;;;;;47.13;22.70;;;;;;;;;;5054050;28;20634;-90
2024/03/05 06:30:17;;;;;;;46.17;21.77;;;;;;;;;;5054414;28;20216;-90
2024/03/05 06:33:21;;;;;;;39.80;21.00;;;;;;;;;;5054611;28;20180;-90
2024/03/05 06:36:26;;;;;;;41.70;21.70;;;;;;;;;;5055359;28;20519;-90
2024/03/05 06:39:35;;;;;;;51.73;24.13;;;;;;;;;;5054371;28;20176;-90
2024/03/05 06:42:41;;;;;;;47.27;20.87;;;;;;;;;;5055203;28;20626;-90
2024/03/05 06:45:46;;;;;;;43.40;21.40;;;;;;;;;;5054879;28;20176;-91
2024/03/05 06:48:55;;;;;;;49.60;22.90;;;;;;;;;;5043194;28;20212;-90
2024/03/05 06:56:39;;;;;;;50.10;25.23;;;;;;;;;;5054117;28;20180;-90
2024/03/05 06:58:47;;;;;;;46.33;22.80;;;;;;;;;;5042801;28;20192;-90
2024/03/05 07:01:52;;;;;;;60.43;28.93;;;;;;;;;;5031442;28;20204;-90
2024/03/05 07:04:58;;;;;;;46.60;25.30;;;;;;;;;;5056688;28;20180;-90
2024/03/05 07:08:02;;;;;;;47.70;24.03;;;;;;;;;;5059089;28;20376;-90
2024/03/05 07:11:11;;;;;;;47.67;23.27;;;;;;;;;;5058585;28;20216;-90
2024/03/05 07:14:15;;;;;;;49.77;23.97;;;;;;;;;;5046991;28;20185;-90
2024/03/05 07:17:20;;;;;;;43.80;22.63;;;;;;;;;;5035839;28;20184;-90
2024/03/05 07:20:24;;;;;;;47.50;23.50;;;;;;;;;;5046313;28;20216;-90
2024/03/05 07:23:29;;;;;;;43.37;23.17;;;;;;;;;;5058231;28;20185;-90
2024/03/05 07:26:34;;;;;;;43.97;23.90;;;;;;;;;;5046382;28;20184;-90
2024/03/05 07:29:38;;;;;;;44.23;24.03;;;;;;;;;;5046363;28;20216;-88
2024/03/05 07:32:47;;;;;;;43.77;23.77;;;;;;;;;;5047022;28;20184;-90
2024/03/05 07:35:52;;;;;;;76.87;43.27;;;;;;;;;;5046737;28;20629;-89
2024/03/05 07:38:57;;;;;;;216.20;95.43;;;;;;;;;;5058363;28;20172;-90
2024/03/05 07:42:01;;;;;;;44.50;26.63;;;;;;;;;;5058605;28;20180;-90
2024/03/05 07:45:07;;;;;;;39.80;23.37;;;;;;;;;;5046689;28;20180;-90
2024/03/05 07:48:11;;;;;;;40.03;22.80;;;;;;;;;;5035389;28;20204;-90
2024/03/05 07:51:15;;;;;;;36.90;20.80;;;;;;;;;;5057965;28;20222;-91
2024/03/05 07:54:20;;;;;;;38.97;22.10;;;;;;;;;;5046674;28;20191;-90
2024/03/05 07:57:24;;;;;;;43.30;22.07;;;;;;;;;;5057633;28;20669;-90
2024/03/05 08:00:29;;;;;;;40.43;22.00;;;;;;;;;;5045804;28;20227;-90
2024/03/05 08:03:33;;;;;;;40.70;21.47;;;;;;;;;;5046024;28;20199;-89
2024/03/05 08:06:38;;;;;;;37.57;21.30;;;;;;;;;;5035145;28;20205;-90
2024/03/05 08:09:42;;;;;;;35.63;20.50;;;;;;;;;;5058089;28;20236;-90
2024/03/05 08:12:49;;;;;;;39.30;21.13;;;;;;;;;;5058255;28;20181;-90
2024/03/05 08:15:54;;;;;;;37.03;20.60;;;;;;;;;;5046269;28;20188;-91
2024/03/05 08:19:00;;;;;;;37.40;19.87;;;;;;;;;;5045930;28;20176;-91
2024/03/05 08:22:05;;;;;;;40.53;21.10;;;;;;;;;;5057157;28;20732;-90
2024/03/05 08:25:09;;;;;;;36.83;20.33;;;;;;;;;;5033370;28;20191;-90
2024/03/05 08:28:13;;;;;;;31.93;17.73;;;;;;;;;;5056496;28;20218;-90
2024/03/05 08:31:17;;;;;;;28.53;16.70;;;;;;;;;;5057028;28;20707;-90
2024/03/05 08:34:23;;;;;;;29.77;16.87;;;;;;;;;;5045686;28;20176;-89
2024/03/05 08:37:28;;;;;;;25.03;15.53;;;;;;;;;;5056710;28;20191;-91
2024/03/05 08:40:35;;;;;;;29.27;15.63;;;;;;;;;;5045088;28;20219;-90
2024/03/05 08:43:40;;;;;;;27.10;16.27;;;;;;;;;;5057209;28;20180;-90
2024/03/05 08:46:46;;;;;;;39.13;22.53;;;;;;;;;;5045078;28;20193;-91
2024/03/05 08:49:50;;;;;;;149.70;77.20;;;;;;;;;;5045158;28;20236;-88
2024/03/05 08:52:55;;;;;;;32.03;19.90;;;;;;;;;;5044575;28;20207;-88
2024/03/05 08:56:07;;;;;;;25.63;15.60;;;;;;;;;;5033232;28;20180;-88
2024/03/05 08:59:21;;;;;;;28.73;15.97;;;;;;;;;;5034273;28;20173;-87
2024/03/05 09:02:26;;;;;;;28.87;16.90;;;;;;;;;;5032992;28;20629;-87
2024/03/05 09:05:32;;;;;;;26.70;17.50;;;;;;;;;;5044300;28;20187;-87
2024/03/05 09:08:39;;;;;;;25.20;14.73;;;;;;;;;;5055551;28;20219;-88
2024/03/05 09:11:43;;;;;;;35.03;17.30;;;;;;;;;;5055600;28;20184;-88
2024/03/05 09:14:48;;;;;;;22.37;13.30;;;;;;;;;;5044121;28;20554;-88
2024/03/05 09:17:53;;;;;;;25.03;14.40;;;;;;;;;;5066704;28;20361;-88
2024/03/05 09:20:57;;;;;;;23.93;14.97;;;;;;;;;;5055431;28;20711;-87
2024/03/05 09:24:06;;;;;;;26.23;14.33;;;;;;;;;;5055980;28;20195;-88
2024/03/05 09:27:12;;;;;;;24.13;13.43;;;;;;;;;;5054573;28;20180;-88
2024/03/05 09:30:18;;;;;;;22.87;13.57;;;;;;;;;;5032427;28;20223;-88
2024/03/05 09:33:22;;;;;;;26.80;14.83;;;;;;;;;;5032081;28;20648;-87
2024/03/05 09:36:26;;;;;;;20.53;13.17;;;;;;;;;;5054642;28;20189;-88
2024/03/05 09:39:32;;;;;;;23.60;13.70;;;;;;;;;;5055114;28;20183;-88
2024/03/05 09:42:36;;;;;;;23.93;13.80;;;;;;;;;;5054776;28;20180;-87
2024/03/05 09:45:44;;;;;;;24.83;13.50;;;;;;;;;;5043411;28;20180;-88
2024/03/05 09:48:48;;;;;;;24.10;13.53;;;;;;;;;;5055087;28;20208;-86
2024/03/05 09:51:53;;;;;;;22.23;13.40;;;;;;;;;;5056284;28;20247;-86
2024/03/05 09:54:57;;;;;;;29.03;17.90;;;;;;;;;;5055461;28;20195;-86
2024/03/05 09:58:07;;;;;;;24.57;15.93;;;;;;;;;;5044515;28;20182;-86
2024/03/05 10:01:12;;;;;;;30.57;20.13;;;;;;;;;;5033404;28;20235;-86
2024/03/05 10:04:16;;;;;;;84.07;60.87;;;;;;;;;;5056484;28;20187;-86
2024/03/05 10:07:26;;;;;;;34.60;26.70;;;;;;;;;;5044217;28;20195;-86
2024/03/05 10:10:33;;;;;;;22.83;13.40;;;;;;;;;;5044667;28;20712;-87
2024/03/05 10:13:37;;;;;;;23.90;13.07;;;;;;;;;;5043404;28;20192;-86
2024/03/05 10:16:43;;;;;;;23.03;12.70;;;;;;;;;;5044760;28;20191;-86
2024/03/05 10:19:48;;;;;;;24.27;13.97;;;;;;;;;;5045754;28;20219;-84
2024/03/05 10:22:54;;;;;;;24.13;13.93;;;;;;;;;;5056129;28;20191;-87
2024/03/05 10:26:17;;;;;;;21.73;13.67;;;;;;;;;;5043835;28;20179;-87
2024/03/05 10:29:33;;;;;;;21.07;12.20;;;;;;;;;;5043755;28;20791;-86
2024/03/05 10:32:37;;;;;;;21.47;13.30;;;;;;;;;;5032382;28;20172;-87
2024/03/05 10:35:49;;;;;;;22.33;12.63;;;;;;;;;;5043153;28;20187;-86
2024/03/05 10:38:54;;;;;;;63.93;15.37;;;;;;;;;;5035127;28;20649;-87
2024/03/05 10:42:01;;;;;;;18.07;12.17;;;;;;;;;;5036119;28;20183;-87
2024/03/05 10:45:09;;;;;;;22.67;13.27;;;;;;;;;;5047830;28;20187;-87
2024/03/05 10:48:15;;;;;;;21.90;13.00;;;;;;;;;;5047281;28;20545;-87
2024/03/05 10:51:21;;;;;;;24.57;13.37;;;;;;;;;;5035877;28;20628;-86
2024/03/05 10:54:27;;;;;;;21.93;12.87;;;;;;;;;;5047442;28;20190;-86
2024/03/05 10:58:08;;;;;;;20.57;11.90;;;;;;;;;;5036857;28;20569;-87
2024/03/05 11:00:57;;;;;;;24.00;12.40;;;;;;;;;;5047353;28;20227;-87
2024/03/05 11:04:09;;;;;;;22.77;13.57;;;;;;;;;;5047684;28;20192;-86
2024/03/05 11:07:13;;;;;;;25.40;13.30;;;;;;;;;;5036566;28;20648;-85
2024/03/05 11:10:19;;;;;;;24.53;14.60;;;;;;;;;;5036343;28;20239;-86
2024/03/05 11:13:24;;;;;;;23.63;13.30;;;;;;;;;;5047904;28;20541;-85
2024/03/05 11:16:32;;;;;;;22.03;13.87;;;;;;;;;;5047492;28;20196;-86
2024/03/05 11:19:39;;;;;;;66.70;37.50;;;;;;;;;;5047933;28;20223;-86
2024/03/05 11:22:46;;;;;;;32.67;19.03;;;;;;;;;;5047338;28;20191;-86
2024/03/05 11:25:52;;;;;;;34.30;18.67;;;;;;;;;;5047451;28;20187;-85
2024/03/05 11:29:05;;;;;;;101.77;44.40;;;;;;;;;;5046603;28;20219;-85
2024/03/05 11:32:10;;;;;;;39.37;21.07;;;;;;;;;;5047578;28;20648;-85
2024/03/05 11:35:18;;;;;;;29.47;16.53;;;;;;;;;;5037641;28;20195;-86
2024/03/05 11:38:25;;;;;;;26.83;16.43;;;;;;;;;;5047000;28;20187;-85
2024/03/05 11:41:44;;;;;;;27.43;17.60;;;;;;;;;;5034635;28;20215;-86
2024/03/05 11:44:49;;;;;;;24.87;14.03;;;;;;;;;;5034990;28;20541;-86
2024/03/05 11:47:56;;;;;;;23.63;13.93;;;;;;;;;;5046334;28;20196;-86
2024/03/05 11:51:02;;;;;;;24.23;14.10;;;;;;;;;;5034060;28;20219;-86
2024/03/05 11:54:15;;;;;;;24.07;14.23;;;;;;;;;;5034617;28;20191;-86
2024/03/05 11:58:14;;;;;;;24.73;14.33;;;;;;;;;;5046084;28;20259;-86
2024/03/05 12:01:19;;;;;;;26.70;14.63;;;;;;;;;;5046052;28;20231;-86
2024/03/05 12:04:22;;;;;;;23.80;14.77;;;;;;;;;;5046229;28;20561;-86
2024/03/05 12:07:28;;;;;;;22.40;13.20;;;;;;;;;;5034749;28;20192;-86
2024/03/05 12:10:38;;;;;;;26.30;13.93;;;;;;;;;;5034953;28;20242;-86
2024/03/05 12:13:45;;;;;;;23.97;14.23;;;;;;;;;;5057440;28;20180;-85
2024/03/05 12:16:49;;;;;;;26.43;16.00;;;;;;;;;;5046184;28;20291;-84
2024/03/05 12:19:58;;;;;;;26.93;15.53;;;;;;;;;;5045324;28;20218;-84
2024/03/05 12:23:03;;;;;;;23.43;14.27;;;;;;;;;;5056193;28;20251;-86
2024/03/05 12:26:08;;;;;;;23.17;14.70;;;;;;;;;;5044796;28;20191;-86
2024/03/05 12:29:24;;;;;;;22.33;13.37;;;;;;;;;;5045313;28;20215;-85
2024/03/05 12:32:28;;;;;;;23.53;13.67;;;;;;;;;;5058798;28;20207;-88
2024/03/05 12:35:33;;;;;;;24.47;14.00;;;;;;;;;;5058050;28;20188;-85
2024/03/05 12:38:37;;;;;;;24.37;12.90;;;;;;;;;;5034206;28;20187;-84
2024/03/05 12:41:41;;;;;;;24.40;13.53;;;;;;;;;;5045723;28;20187;-84
2024/03/05 12:44:45;;;;;;;26.40;14.40;;;;;;;;;;5045752;28;20552;-84
2024/03/05 12:48:00;;;;;;;23.83;14.37;;;;;;;;;;5034150;28;20195;-85
2024/03/05 12:51:05;;;;;;;22.60;13.47;;;;;;;;;;5045297;28;20234;-87
2024/03/05 12:54:11;;;;;;;23.77;13.67;;;;;;;;;;5045529;28;20183;-86
2024/03/05 12:57:28;;;;;;;22.40;12.73;;;;;;;;;;5034736;28;20191;-85
2024/03/05 13:00:35;;;;;;;23.30;13.10;;;;;;;;;;5056523;28;20234;-86
2024/03/05 13:03:40;;;;;;;25.50;14.60;;;;;;;;;;5044951;28;20187;-85
2024/03/05 13:06:44;;;;;;;27.00;15.87;;;;;;;;;;5044625;28;20183;-86
2024/03/05 13:09:48;;;;;;;28.53;17.40;;;;;;;;;;5044882;28;20242;-85
2024/03/05 13:12:53;;;;;;;49.00;30.80;;;;;;;;;;5045109;28;20187;-86
2024/03/05 13:15:57;;;;;;;62.93;33.67;;;;;;;;;;5044363;28;20537;-85
2024/03/05 13:19:02;;;;;;;49.93;27.73;;;;;;;;;;5034001;28;20183;-88
2024/03/05 13:22:06;;;;;;;81.03;42.27;;;;;;;;;;5044231;28;20202;-88
2024/03/05 13:25:15;;;;;;;31.07;19.57;;;;;;;;;;5043850;28;20206;-88
2024/03/05 13:28:19;;;;;;;26.00;15.63;;;;;;;;;;5031505;28;20541;-87
2024/03/05 13:31:24;;;;;;;31.60;22.50;;;;;;;;;;5043787;28;20238;-88
2024/03/05 13:34:29;;;;;;;31.23;15.40;;;;;;;;;;5043407;28;20187;-85
2024/03/05 13:37:35;;;;;;;25.27;15.30;;;;;;;;;;5056097;28;20191;-86
2024/03/05 13:40:39;;;;;;;25.87;13.90;;;;;;;;;;5031990;28;20231;-87
2024/03/05 13:43:44;;;;;;;27.00;14.17;;;;;;;;;;5043200;28;20191;-86
2024/03/05 13:46:50;;;;;;;24.83;13.73;;;;;;;;;;5055869;28;20195;-86
2024/03/05 13:49:56;;;;;;;25.03;15.40;;;;;;;;;;5055400;28;20220;-86
2024/03/05 13:53:00;;;;;;;22.47;13.93;;;;;;;;;;5044719;28;20263;-86
2024/03/05 13:56:05;;;;;;;38.83;23.50;;;;;;;;;;5037768;28;20650;-89
2024/03/05 13:59:12;;;;;;;25.87;15.27;;;;;;;;;;5055959;28;20187;-89
2024/03/05 14:02:16;;;;;;;23.27;14.37;;;;;;;;;;5054618;28;20608;-89
2024/03/05 14:05:21;;;;;;;21.97;13.23;;;;;;;;;;5043238;28;20183;-87
2024/03/05 14:08:28;;;;;;;22.63;14.53;;;;;;;;;;5054032;28;20191;-87
2024/03/05 14:11:35;;;;;;;20.97;13.43;;;;;;;;;;5054900;28;20283;-87
2024/03/05 14:14:41;;;;;;;22.53;13.07;;;;;;;;;;5054144;28;20545;-87
2024/03/05 14:17:45;;;;;;;28.63;13.43;;;;;;;;;;5043376;28;20187;-87
2024/03/05 14:20:50;;;;;;;23.13;12.83;;;;;;;;;;5054679;28;20230;-87
2024/03/05 14:23:54;;;;;;;22.13;12.80;;;;;;;;;;5042768;28;20191;-87
2024/03/05 14:26:59;;;;;;;25.73;13.93;;;;;;;;;;5043322;28;20187;-87
2024/03/05 14:30:07;;;;;;;25.00;13.03;;;;;;;;;;5042704;28;20215;-87
2024/03/05 14:33:13;;;;;;;22.13;12.43;;;;;;;;;;5055156;28;20191;-87
2024/03/05 14:36:17;;;;;;;22.90;13.03;;;;;;;;;;5054784;28;20199;-87
2024/03/05 14:39:21;;;;;;;22.07;12.90;;;;;;;;;;5041965;28;20548;-88
2024/03/05 14:42:25;;;;;;;24.30;13.53;;;;;;;;;;5042350;28;20183;-87
2024/03/05 14:45:31;;;;;;;50.20;28.87;;;;;;;;;;5054424;28;20191;-87
2024/03/05 14:48:35;;;;;;;28.57;16.73;;;;;;;;;;5053415;28;20192;-87
2024/03/05 14:51:42;;;;;;;46.17;16.60;;;;;;;;;;5041773;28;20219;-87
2024/03/05 14:54:46;;;;;;;109.63;22.00;;;;;;;;;;5053552;28;20191;-88
2024/03/05 14:57:51;;;;;;;30.03;15.37;;;;;;;;;;5042018;28;20672;-88
2024/03/05 15:00:54;;;;;;;24.70;13.33;;;;;;;;;;5041829;28;20238;-88
2024/03/05 15:04:01;;;;;;;24.23;13.53;;;;;;;;;;5053270;28;20199;-88
2024/03/05 15:07:05;;;;;;;24.23;13.50;;;;;;;;;;5054166;28;20651;-86
2024/03/05 15:10:14;;;;;;;31.13;14.53;;;;;;;;;;5030533;28;20219;-88
2024/03/05 15:13:19;;;;;;;34.47;14.67;;;;;;;;;;5041740;28;20184;-88
2024/03/05 15:16:24;;;;;;;28.13;15.63;;;;;;;;;;5041708;28;20191;-87
2024/03/05 15:19:28;;;;;;;24.67;15.00;;;;;;;;;;5041862;28;20548;-88
2024/03/05 15:22:33;;;;;;;30.37;15.50;;;;;;;;;;5030091;28;20680;-87
2024/03/05 15:25:37;;;;;;;24.40;14.50;;;;;;;;;;5054245;28;20191;-87
2024/03/05 15:28:42;;;;;;;27.83;15.30;;;;;;;;;;5056876;28;20187;-88
2024/03/05 15:31:50;;;;;;;26.43;15.17;;;;;;;;;;5057282;28;20195;-87
2024/03/05 15:34:55;;;;;;;28.17;16.87;;;;;;;;;;5057095;28;20557;-87
2024/03/05 15:38:00;;;;;;;27.53;15.70;;;;;;;;;;5056506;28;20203;-87
2024/03/05 15:41:04;;;;;;;29.27;15.30;;;;;;;;;;5056389;28;20242;-88
2024/03/05 15:44:08;;;;;;;24.57;14.80;;;;;;;;;;5033448;28;20183;-87
2024/03/05 15:47:13;;;;;;;29.73;17.10;;;;;;;;;;5045121;28;20183;-88
2024/03/05 15:50:18;;;;;;;27.07;15.50;;;;;;;;;;5048543;28;20212;-87
2024/03/05 15:53:24;;;;;;;32.30;16.70;;;;;;;;;;5047917;28;20176;-86
2024/03/05 15:56:44;;;;;;;31.37;16.13;;;;;;;;;;5056966;28;20180;-86
2024/03/05 16:00:07;;;;;;;32.37;19.50;;;;;;;;;;5058509;28;20219;-86
2024/03/05 16:03:16;;;;;;;33.77;19.10;;;;;;;;;;5050393;28;20191;-85
2024/03/05 16:06:21;;;;;;;32.07;18.37;;;;;;;;;;5057377;28;20211;-85
2024/03/05 16:09:25;;;;;;;37.20;22.87;;;;;;;;;;5025325;28;20527;-87
2024/03/05 16:12:31;;;;;;;33.77;17.57;;;;;;;;;;5025561;28;20176;-85
2024/03/05 16:15:35;;;;;;;30.30;17.33;;;;;;;;;;5036763;28;20177;-85
2024/03/05 16:18:40;;;;;;;29.00;17.70;;;;;;;;;;5014276;28;20177;-86
2024/03/05 16:21:46;;;;;;;28.70;15.20;;;;;;;;;;5026299;28;20213;-82
2024/03/05 16:24:50;;;;;;;19.13;10.70;;;;;;;;;;5038243;28;20185;-85
2024/03/05 16:27:55;;;;;;;39.13;20.03;;;;;;;;;;5026609;28;20189;-86
2024/03/05 16:31:00;;;;;;;20.47;13.43;;;;;;;;;;5025936;28;20221;-87
2024/03/05 16:34:05;;;;;;;17.80;11.57;;;;;;;;;;5038447;28;20177;-88
2024/03/05 16:37:10;;;;;;;18.50;11.00;;;;;;;;;;5032304;28;20181;-85
2024/03/05 16:40:19;;;;;;;18.70;10.83;;;;;;;;;;5032969;28;20224;-85
2024/03/05 16:43:23;;;;;;;14.60;9.30;;;;;;;;;;5032738;28;20189;-85
2024/03/05 16:46:31;;;;;;;15.33;9.83;;;;;;;;;;5033782;28;20185;-85
2024/03/05 16:49:35;;;;;;;19.30;12.87;;;;;;;;;;5022422;28;20180;-86
2024/03/05 16:52:43;;;;;;;18.63;10.33;;;;;;;;;;5044784;28;20646;-85
2024/03/05 16:55:47;;;;;;;16.73;9.77;;;;;;;;;;5022146;28;20232;-84
2024/03/05 16:58:52;;;;;;;16.20;9.20;;;;;;;;;;5032752;28;20184;-85
2024/03/05 17:02:01;;;;;;;16.17;9.67;;;;;;;;;;5021162;28;20228;-84
2024/03/05 17:05:07;;;;;;;18.50;11.60;;;;;;;;;;5032144;28;20184;-84
2024/03/05 17:08:42;;;;;;;18.67;10.33;;;;;;;;;;5033584;28;20168;-84
2024/03/05 17:11:47;;;;;;;24.30;15.37;;;;;;;;;;5031984;28;20188;-85
2024/03/05 17:14:53;;;;;;;25.50;13.50;;;;;;;;;;5021112;28;20185;-85
2024/03/05 17:17:58;;;;;;;22.77;12.23;;;;;;;;;;5021055;28;20181;-87
2024/03/05 17:21:04;;;;;;;21.13;11.60;;;;;;;;;;5032643;28;20224;-85
2024/03/05 17:24:11;;;;;;;21.73;12.20;;;;;;;;;;5021478;28;20200;-84
2024/03/05 17:27:16;;;;;;;18.03;11.47;;;;;;;;;;5042089;28;20181;-84
2024/03/05 17:30:20;;;;;;;18.47;10.63;;;;;;;;;;5030226;28;20590;-86
2024/03/05 17:33:25;;;;;;;19.53;11.00;;;;;;;;;;5030613;28;20185;-90
2024/03/05 17:36:31;;;;;;;19.70;10.83;;;;;;;;;;5042635;28;20185;-89
2024/03/05 17:39:35;;;;;;;19.33;10.93;;;;;;;;;;5029102;28;20181;-90
2024/03/05 17:42:41;;;;;;;23.90;12.07;;;;;;;;;;5040519;28;20212;-90
2024/03/05 17:45:46;;;;;;;23.53;11.10;;;;;;;;;;5042259;28;20626;-90
2024/03/05 17:48:50;;;;;;;19.20;10.97;;;;;;;;;;5017986;28;20177;-89
2024/03/05 17:51:54;;;;;;;22.03;12.80;;;;;;;;;;5028434;28;20511;-90
2024/03/05 17:54:58;;;;;;;20.20;11.37;;;;;;;;;;5039438;28;20185;-90
2024/03/05 17:58:03;;;;;;;19.13;10.37;;;;;;;;;;5039463;28;20181;-90
2024/03/05 18:01:11;;;;;;;21.67;11.93;;;;;;;;;;5039428;28;20236;-87
2024/03/05 18:04:16;;;;;;;18.33;11.27;;;;;;;;;;5039671;28;20185;-89